Amavisti — V2CR5 — position and weather

sailwx.info

Track history (hours):
 
Tides and Currents Weather Stations Pressure Air Temp Water Temp Dewpoint Dewpoint Depression Visibility Wind Speed Wind Dir Waves Ship Positions

Amavisti

Last reported at 2014-Oct-27 15:13 UTC. Time now 2014-Oct-30 15:12 UTC.
Position N 36°48' E 013°46'.

Length 116 m; draft 6.8 m.

Type: Cargo ship. MMSI: 305086000.

Date/timePositionNaut miles runAvg speedWind from/ knotsBaromVisibWave heightAir tempDewpointWater temp
2014-Oct-27 15:13N 36°48' E 013°46'710.2
2014-Oct-27 14:33N 36°47' E 013°55'1010.2
2014-Oct-27 13:33N 36°45' E 014°07'1010.1
2014-Oct-27 12:33N 36°42' E 014°19'1110.4
2014-Oct-27 11:33N 36°40' E 014°32'461 9.4
2014-Oct-25 10:29N 37°19' E 024°07'9 9.9
2014-Oct-25 09:33N 37°26' E 024°15'10 9.9
2014-Oct-25 08:33N 37°34' E 024°23'1410.5
2014-Oct-25 07:12N 37°46' E 024°31'  
2014-Oct-21 18:32N 38°47' E 025°53'1010.5
2014-Oct-21 17:33N 38°46' E 025°40'1110.8
2014-Oct-21 16:33N 38°45' E 025°27'1110.7
2014-Oct-21 15:33N 38°45' E 025°13'1110.4
2014-Oct-21 14:32N 38°44' E 024°59'1210.2
2014-Oct-21 13:25N 38°43' E 024°45'910.3
2014-Oct-21 12:32N 38°44' E 024°33'  
Track history (hours):
 
Tides and Currents Weather Stations Pressure Air Temp Water Temp Dewpoint Dewpoint Depression Visibility Wind Speed Wind Dir Waves Ship Positions

Amavisti

Last reported at 2014-Oct-27 15:13 UTC. Time now 2014-Oct-30 15:12 UTC.
Position N 36°48' E 013°46'.

Length 116 m; draft 6.8 m.

Type: Cargo ship. MMSI: 305086000.

Date/timePositionNaut miles runAvg speedWind from/ knotsBaromVisibWave heightAir tempDewpointWater temp
2014-Oct-27 15:13N 36°48' E 013°46'710.2
2014-Oct-27 14:33N 36°47' E 013°55'1010.2
2014-Oct-27 13:33N 36°45' E 014°07'1010.1
2014-Oct-27 12:33N 36°42' E 014°19'1110.4
2014-Oct-27 11:33N 36°40' E 014°32'461 9.4
2014-Oct-25 10:29N 37°19' E 024°07'9 9.9
2014-Oct-25 09:33N 37°26' E 024°15'10 9.9
2014-Oct-25 08:33N 37°34' E 024°23'1410.5
2014-Oct-25 07:12N 37°46' E 024°31'  
2014-Oct-21 18:32N 38°47' E 025°53'1010.5
2014-Oct-21 17:33N 38°46' E 025°40'1110.8
2014-Oct-21 16:33N 38°45' E 025°27'1110.7
2014-Oct-21 15:33N 38°45' E 025°13'1110.4
2014-Oct-21 14:32N 38°44' E 024°59'1210.2
2014-Oct-21 13:25N 38°43' E 024°45'910.3
2014-Oct-21 12:32N 38°44' E 024°33'  

Dump ship's entire track history